createdAt,value
2019-03-04T00:00:45.238Z,11.12
2019-03-04T00:01:45.234Z,11.12
2019-03-04T00:02:45.240Z,11.10
2019-03-04T00:03:45.221Z,11.15
2019-03-04T00:04:45.217Z,11.14
2019-03-04T00:05:45.217Z,11.15
2019-03-04T00:06:45.207Z,11.14
2019-03-04T00:07:45.200Z,11.11
2019-03-04T00:08:45.192Z,11.08
2019-03-04T00:09:45.190Z,11.05
2019-03-04T00:10:45.185Z,11.05
2019-03-04T00:11:45.177Z,11.07
2019-03-04T00:12:45.170Z,11.08
2019-03-04T00:13:45.167Z,11.05
2019-03-04T00:14:45.163Z,11.17
2019-03-04T00:15:45.153Z,11.08
2019-03-04T00:16:45.149Z,11.14
2019-03-04T00:17:45.143Z,11.14
2019-03-04T00:18:45.135Z,11.12
2019-03-04T00:19:45.130Z,11.12
2019-03-04T00:20:45.123Z,11.18
2019-03-04T00:21:45.120Z,11.15
2019-03-04T00:22:45.117Z,11.14
2019-03-04T00:23:45.110Z,11.12
2019-03-04T00:24:45.102Z,11.14
2019-03-04T00:25:45.097Z,11.18
2019-03-04T00:26:45.091Z,11.12
2019-03-04T00:27:45.087Z,11.08
2019-03-04T00:28:45.085Z,11.04
2019-03-04T00:29:45.075Z,11.08
2019-03-04T00:30:45.067Z,11.18
2019-03-04T00:31:45.063Z,11.12
2019-03-04T00:32:45.221Z,11.14
2019-03-04T00:33:45.057Z,11.02
2019-03-04T00:34:45.043Z,11.11
2019-03-04T00:35:45.041Z,11.07
2019-03-04T00:36:45.035Z,11.07
2019-03-04T00:37:45.031Z,11.05
2019-03-04T00:38:45.023Z,11.11
2019-03-04T00:39:45.020Z,11.19
2019-03-04T00:40:45.009Z,11.17
2019-03-04T00:41:45.003Z,11.15
2019-03-04T00:42:45.000Z,11.18
2019-03-04T00:43:44.992Z,11.10
2019-03-04T00:44:44.989Z,11.12
2019-03-04T00:45:44.981Z,11.22
2019-03-04T00:46:44.979Z,11.22
2019-03-04T00:47:44.971Z,11.19
2019-03-04T00:48:44.961Z,11.14
2019-03-04T00:49:44.960Z,11.12
2019-03-04T00:50:44.954Z,11.08
2019-03-04T00:51:44.946Z,11.12
2019-03-04T00:52:44.944Z,11.11
2019-03-04T00:53:44.936Z,11.08
2019-03-04T00:54:44.929Z,11.12
2019-03-04T00:55:44.924Z,11.17
2019-03-04T00:56:44.924Z,11.14
2019-03-04T00:57:44.912Z,11.15
2019-03-04T00:58:44.905Z,11.17
2019-03-04T00:59:44.905Z,11.18
2019-03-04T01:00:44.897Z,11.12
2019-03-04T01:01:44.890Z,11.12
2019-03-04T01:02:44.882Z,11.08
2019-03-04T01:03:44.877Z,11.08
2019-03-04T01:04:44.871Z,11.11
2019-03-04T01:05:44.869Z,11.12
2019-03-04T01:06:44.862Z,11.12
2019-03-04T01:07:44.857Z,11.18
2019-03-04T01:08:44.849Z,11.14
2019-03-04T01:09:44.844Z,11.14
2019-03-04T01:10:44.840Z,11.12
2019-03-04T01:11:44.831Z,11.14
2019-03-04T01:12:44.828Z,11.10
2019-03-04T01:13:44.820Z,11.15
2019-03-04T01:14:44.814Z,11.11
2019-03-04T01:15:44.813Z,11.07
2019-03-04T01:16:44.807Z,11.17
2019-03-04T01:17:44.800Z,11.11
2019-03-04T01:18:44.792Z,11.10
2019-03-04T01:19:44.785Z,11.12
2019-03-04T01:20:44.779Z,11.23
2019-03-04T01:21:44.776Z,11.25
2019-03-04T01:22:44.780Z,11.22
2019-03-04T01:23:44.764Z,11.25
2019-03-04T01:24:44.759Z,11.32
2019-03-04T01:25:44.751Z,11.23
2019-03-04T01:26:44.745Z,11.23
2019-03-04T01:27:44.742Z,11.23
2019-03-04T01:28:44.739Z,11.25
2019-03-04T01:29:44.732Z,11.25
2019-03-04T01:30:44.723Z,11.26
2019-03-04T01:31:44.718Z,11.32
2019-03-04T01:32:44.718Z,11.30
2019-03-04T01:33:44.708Z,11.33
2019-03-04T01:34:44.702Z,11.35
2019-03-04T01:35:44.699Z,11.32
2019-03-04T01:36:44.690Z,11.40
2019-03-04T01:37:44.684Z,11.40
2019-03-04T01:38:44.678Z,11.40
2019-03-04T01:39:44.673Z,11.40
2019-03-04T01:40:44.666Z,11.40
2019-03-04T01:41:44.662Z,11.33
2019-03-04T01:42:44.654Z,11.35
2019-03-04T01:43:44.651Z,11.30
2019-03-04T01:44:44.645Z,11.27
2019-03-04T01:45:44.638Z,11.17
2019-03-04T01:46:44.632Z,11.14
2019-03-04T01:47:44.628Z,11.11
2019-03-04T01:48:44.625Z,11.08
2019-03-04T01:49:44.616Z,11.04
2019-03-04T01:50:44.611Z,11.00
2019-03-04T01:51:44.603Z,10.93
2019-03-04T01:52:44.599Z,10.93
2019-03-04T01:53:44.593Z,11.02
2019-03-04T01:54:44.587Z,10.94
2019-03-04T01:55:44.586Z,10.90
2019-03-04T01:56:44.577Z,10.90
2019-03-04T01:57:44.570Z,10.84
2019-03-04T01:58:44.566Z,10.92
2019-03-04T01:59:44.560Z,10.90
2019-03-04T02:00:44.557Z,10.93
2019-03-04T02:01:44.551Z,10.79
2019-03-04T02:02:44.544Z,10.75
2019-03-04T02:03:44.535Z,10.78
2019-03-04T02:04:44.531Z,10.74
2019-03-04T02:05:44.528Z,10.68
2019-03-04T02:06:44.520Z,10.75
2019-03-04T02:07:44.514Z,10.64
2019-03-04T02:08:44.508Z,10.63
2019-03-04T02:09:44.505Z,10.59
2019-03-04T02:10:44.499Z,10.64
2019-03-04T02:11:44.491Z,10.60
2019-03-04T02:12:44.488Z,10.51
2019-03-04T02:13:44.480Z,10.46
2019-03-04T02:14:44.473Z,10.56
2019-03-04T02:15:44.469Z,10.53
2019-03-04T02:16:44.460Z,10.53
2019-03-04T02:17:44.459Z,10.49
2019-03-04T02:18:44.453Z,10.38
2019-03-04T02:19:44.445Z,10.41
2019-03-04T02:20:44.440Z,10.41
2019-03-04T02:21:44.435Z,10.37
2019-03-04T02:22:44.432Z,10.40
2019-03-04T02:23:44.420Z,10.37
2019-03-04T02:24:44.415Z,10.33
2019-03-04T02:25:44.414Z,10.35
2019-03-04T02:26:44.403Z,10.26
2019-03-04T02:27:44.397Z,10.31
2019-03-04T02:28:44.398Z,10.28
2019-03-04T02:29:44.387Z,10.31
2019-03-04T02:30:44.380Z,10.26
2019-03-04T02:31:44.375Z,10.26
2019-03-04T02:32:44.370Z,10.30
2019-03-04T02:33:44.364Z,10.25
2019-03-04T02:34:44.359Z,10.25
2019-03-04T02:35:44.350Z,10.28
2019-03-04T02:36:44.348Z,10.30
2019-03-04T02:37:44.340Z,10.31
2019-03-04T02:38:44.340Z,10.26
2019-03-04T02:39:44.329Z,10.35
2019-03-04T02:40:44.324Z,10.41
2019-03-04T02:41:44.318Z,10.40
2019-03-04T02:42:44.316Z,10.35
2019-03-04T02:43:44.322Z,10.38
2019-03-04T02:44:44.302Z,10.40
2019-03-04T02:45:44.290Z,10.38
2019-03-04T02:46:44.287Z,10.41
2019-03-04T02:47:44.279Z,10.41
2019-03-04T02:48:44.272Z,10.28
2019-03-04T02:49:44.264Z,10.37
2019-03-04T02:50:44.280Z,10.40
2019-03-04T02:51:44.254Z,10.30
2019-03-04T02:52:44.249Z,10.35
2019-03-04T02:53:44.245Z,10.37
2019-03-04T02:54:44.236Z,10.33
2019-03-04T02:55:44.229Z,10.25
2019-03-04T02:56:44.230Z,10.28
2019-03-04T02:57:44.224Z,10.37
2019-03-04T02:58:44.214Z,10.25
2019-03-04T02:59:44.206Z,10.28
2019-03-04T03:00:44.204Z,10.33
2019-03-04T03:01:44.196Z,10.30
2019-03-04T03:02:44.189Z,10.23
2019-03-04T03:03:44.183Z,10.31
2019-03-04T03:04:44.180Z,10.28
2019-03-04T03:05:44.185Z,10.34
2019-03-04T03:06:44.164Z,10.30
2019-03-04T03:07:44.184Z,10.30
2019-03-04T03:08:44.155Z,10.28
2019-03-04T03:09:44.145Z,10.23
2019-03-04T03:10:44.135Z,10.26
2019-03-04T03:11:44.136Z,10.28
2019-03-04T03:12:44.127Z,10.30
2019-03-04T03:13:44.121Z,10.30
2019-03-04T03:14:44.117Z,10.26
2019-03-04T03:15:44.113Z,10.30
2019-03-04T03:16:44.104Z,10.22
2019-03-04T03:17:44.101Z,10.17
2019-03-04T03:18:44.101Z,10.16
2019-03-04T03:19:44.089Z,10.25
2019-03-04T03:20:44.076Z,10.28
2019-03-04T03:21:44.074Z,10.23
2019-03-04T03:22:44.065Z,10.20
2019-03-04T03:23:44.060Z,10.25
2019-03-04T03:24:44.055Z,10.25
2019-03-04T03:25:44.050Z,10.22
2019-03-04T03:26:44.042Z,10.15
2019-03-04T03:27:44.035Z,10.22
2019-03-04T03:28:44.029Z,10.15
2019-03-04T03:29:44.030Z,10.15
2019-03-04T03:30:44.023Z,10.16
2019-03-04T03:31:44.029Z,10.19
2019-03-04T03:32:44.008Z,10.13
2019-03-04T03:33:44.000Z,10.22
2019-03-04T03:34:43.990Z,10.22
2019-03-04T03:35:43.986Z,10.13
2019-03-04T03:36:43.977Z,10.15
2019-03-04T03:37:43.974Z,10.15
2019-03-04T03:38:43.964Z,10.20
2019-03-04T03:39:43.956Z,10.17
2019-03-04T03:40:43.955Z,10.07
2019-03-04T03:41:44.011Z,10.07
2019-03-04T03:42:43.945Z,10.17
2019-03-04T03:43:43.933Z,10.13
2019-03-04T03:44:43.933Z,10.15
2019-03-04T03:45:43.928Z,10.15
2019-03-04T03:46:43.919Z,10.12
2019-03-04T03:47:43.910Z,10.13
2019-03-04T03:48:43.905Z,10.10
2019-03-04T03:49:43.898Z,10.12
2019-03-04T03:50:43.892Z,10.16
2019-03-04T03:51:43.886Z,10.13
2019-03-04T03:52:43.883Z,10.17
2019-03-04T03:53:43.872Z,10.10
2019-03-04T03:54:43.866Z,10.07
2019-03-04T03:55:43.860Z,10.15
2019-03-04T03:56:43.863Z,10.12
2019-03-04T03:57:43.846Z,10.12
2019-03-04T03:58:43.841Z,10.16
2019-03-04T03:59:43.834Z,10.13
2019-03-04T04:00:43.830Z,10.09
2019-03-04T04:01:43.824Z,10.13
2019-03-04T04:02:43.815Z,10.16
2019-03-04T04:03:43.808Z,10.16
2019-03-04T04:04:43.806Z,10.15
2019-03-04T04:05:43.808Z,10.07
2019-03-04T04:06:43.802Z,10.17
2019-03-04T04:07:43.785Z,10.25
2019-03-04T04:08:43.784Z,10.20
2019-03-04T04:09:43.775Z,10.26
2019-03-04T04:10:43.767Z,10.25
2019-03-04T04:11:43.760Z,10.25
2019-03-04T04:12:43.757Z,10.23
2019-03-04T04:13:43.747Z,10.34
2019-03-04T04:14:43.743Z,10.31
2019-03-04T04:15:43.736Z,10.28
2019-03-04T04:16:43.728Z,10.35
2019-03-04T04:17:43.738Z,10.35
2019-03-04T04:18:43.718Z,10.35
2019-03-04T04:19:43.736Z,10.38
2019-03-04T04:20:43.706Z,10.38
2019-03-04T04:21:43.704Z,10.35
2019-03-04T04:22:43.691Z,10.41
2019-03-04T04:23:43.685Z,10.35
2019-03-04T04:24:43.678Z,10.37
2019-03-04T04:25:43.677Z,10.41
2019-03-04T04:26:43.667Z,10.37
2019-03-04T04:27:43.663Z,10.42
2019-03-04T04:28:43.654Z,10.46
2019-03-04T04:29:43.648Z,10.53
2019-03-04T04:30:43.644Z,10.49
2019-03-04T04:31:43.634Z,10.54
2019-03-04T04:32:43.627Z,10.56
2019-03-04T04:33:43.622Z,10.51
2019-03-04T04:34:43.621Z,10.49
2019-03-04T04:35:43.610Z,10.57
2019-03-04T04:36:43.603Z,10.54
2019-03-04T04:37:43.596Z,10.51
2019-03-04T04:38:43.591Z,10.56
2019-03-04T04:39:43.585Z,10.53
2019-03-04T04:40:43.579Z,10.46
2019-03-04T04:41:43.570Z,10.59
2019-03-04T04:42:43.566Z,10.57
2019-03-04T04:43:43.564Z,10.56
2019-03-04T04:44:43.553Z,10.59
2019-03-04T04:45:43.550Z,10.61
2019-03-04T04:46:43.540Z,10.64
2019-03-04T04:47:43.537Z,10.74
2019-03-04T04:48:43.529Z,10.74
2019-03-04T04:49:43.524Z,10.69
2019-03-04T04:50:43.518Z,10.74
2019-03-04T04:51:43.512Z,10.81
2019-03-04T04:52:43.507Z,10.78
2019-03-04T04:53:43.498Z,10.72
2019-03-04T04:54:43.493Z,10.69
2019-03-04T04:55:43.487Z,10.76
2019-03-04T04:56:43.482Z,10.87
2019-03-04T04:57:43.475Z,10.84
2019-03-04T04:58:43.470Z,10.75
2019-03-04T04:59:43.463Z,10.92
2019-03-04T05:00:43.460Z,10.92
2019-03-04T05:01:43.451Z,10.92
2019-03-04T05:02:43.446Z,10.92
2019-03-04T05:03:43.437Z,10.90
2019-03-04T05:04:43.437Z,10.92
2019-03-04T05:05:43.426Z,10.92
2019-03-04T05:06:43.421Z,10.90
2019-03-04T05:07:43.417Z,10.94
2019-03-04T05:08:43.411Z,10.92
2019-03-04T05:09:43.403Z,10.92
2019-03-04T05:10:43.395Z,10.86
2019-03-04T05:11:43.389Z,10.94
2019-03-04T05:12:43.391Z,10.93
2019-03-04T05:13:43.379Z,10.92
2019-03-04T05:14:43.373Z,10.96
2019-03-04T05:15:43.385Z,10.90
2019-03-04T05:16:43.361Z,10.87
2019-03-04T05:17:43.360Z,10.89
2019-03-04T05:18:43.350Z,10.93
2019-03-04T05:19:43.344Z,10.89
2019-03-04T05:20:43.336Z,10.93
2019-03-04T05:21:43.332Z,10.90
2019-03-04T05:22:43.331Z,10.93
2019-03-04T05:23:43.320Z,10.92
2019-03-04T05:24:43.317Z,10.96
2019-03-04T05:25:43.314Z,10.97
2019-03-04T05:26:43.301Z,10.89
2019-03-04T05:27:43.303Z,10.84
2019-03-04T05:28:43.291Z,10.93
2019-03-04T05:29:43.287Z,10.92
2019-03-04T05:30:43.279Z,10.89
2019-03-04T05:31:43.273Z,10.93
2019-03-04T05:32:43.267Z,10.87
2019-03-04T05:33:43.261Z,10.94
2019-03-04T05:34:43.254Z,10.87
2019-03-04T05:35:43.249Z,10.96
2019-03-04T05:36:43.248Z,10.93
2019-03-04T05:37:43.237Z,10.92
2019-03-04T05:38:43.234Z,10.96
2019-03-04T05:39:43.219Z,10.93
2019-03-04T05:40:43.221Z,10.97
2019-03-04T05:41:43.216Z,10.92
2019-03-04T05:42:43.211Z,10.94
2019-03-04T05:43:43.202Z,10.96
2019-03-04T05:44:43.196Z,10.96
2019-03-04T05:45:43.194Z,10.99
2019-03-04T05:46:43.189Z,10.93
2019-03-04T05:47:43.183Z,10.93
2019-03-04T05:48:43.176Z,11.08
2019-03-04T05:49:43.167Z,11.07
2019-03-04T05:50:43.161Z,11.05
2019-03-04T05:51:43.158Z,11.12
2019-03-04T05:52:43.150Z,11.12
2019-03-04T05:53:43.149Z,11.12
2019-03-04T05:54:43.136Z,11.11
2019-03-04T05:55:43.134Z,11.15
2019-03-04T05:56:43.127Z,11.15
2019-03-04T05:57:43.123Z,11.11
2019-03-04T05:58:43.119Z,11.14
2019-03-04T05:59:43.109Z,11.19
2019-03-04T06:00:43.105Z,11.19
2019-03-04T06:01:43.100Z,11.14
2019-03-04T06:02:43.093Z,11.22
2019-03-04T06:03:43.086Z,11.19
2019-03-04T06:04:43.084Z,11.19
2019-03-04T06:05:43.078Z,11.18
2019-03-04T06:06:43.070Z,11.29
2019-03-04T06:07:43.063Z,11.22
2019-03-04T06:08:43.063Z,11.19
2019-03-04T06:09:43.053Z,11.23
2019-03-04T06:10:43.048Z,11.23
2019-03-04T06:11:43.041Z,11.22
2019-03-04T06:12:43.034Z,11.23
2019-03-04T06:13:43.036Z,11.22
2019-03-04T06:14:43.026Z,11.23
2019-03-04T06:15:43.019Z,11.18
2019-03-04T06:16:47.253Z,11.19
2019-03-04T06:17:43.009Z,11.19
2019-03-04T06:18:43.003Z,11.25
2019-03-04T06:19:44.043Z,11.22
2019-03-04T06:20:42.993Z,11.22
2019-03-04T06:21:42.987Z,11.22
2019-03-04T06:22:42.976Z,11.32
2019-03-04T06:23:42.974Z,11.22
2019-03-04T06:24:42.968Z,11.25
2019-03-04T06:25:42.976Z,11.25
2019-03-04T06:26:42.955Z,11.27
2019-03-04T06:27:42.950Z,11.19
2019-03-04T06:28:42.945Z,11.23
2019-03-04T06:29:42.940Z,11.23
2019-03-04T06:30:42.932Z,11.19
2019-03-04T06:31:42.930Z,11.22
2019-03-04T06:32:42.926Z,11.23
2019-03-04T06:33:42.916Z,11.15
2019-03-04T06:34:42.912Z,11.23
2019-03-04T06:35:42.907Z,11.18
2019-03-04T06:36:42.901Z,11.15
2019-03-04T06:37:42.892Z,11.18
2019-03-04T06:38:42.889Z,11.19
2019-03-04T06:39:42.882Z,11.23
2019-03-04T06:40:42.877Z,11.17
2019-03-04T06:41:42.872Z,11.26
2019-03-04T06:42:42.870Z,11.19
2019-03-04T06:43:44.090Z,11.25
2019-03-04T06:44:42.852Z,11.27
2019-03-04T06:45:42.850Z,11.27
2019-03-04T06:46:42.845Z,11.19
2019-03-04T06:47:42.842Z,11.26
2019-03-04T06:48:42.830Z,11.19
2019-03-04T06:49:42.828Z,11.19
2019-03-04T06:50:42.819Z,11.23
2019-03-04T06:51:42.813Z,11.23
2019-03-04T06:52:42.809Z,11.19
2019-03-04T06:53:42.804Z,11.17
2019-03-04T06:54:42.796Z,11.25
2019-03-04T06:55:42.790Z,11.19
2019-03-04T06:56:42.786Z,11.22
2019-03-04T06:57:42.781Z,11.22
2019-03-04T06:58:42.773Z,11.17
2019-03-04T06:59:42.769Z,11.19
2019-03-04T07:00:42.759Z,11.27
2019-03-04T07:01:42.760Z,11.26
2019-03-04T07:02:42.751Z,11.27
2019-03-04T07:03:42.747Z,11.26
2019-03-04T07:04:42.741Z,11.32
2019-03-04T07:05:42.733Z,11.32
2019-03-04T07:06:42.734Z,11.36
2019-03-04T07:07:42.723Z,11.36
2019-03-04T07:08:42.716Z,11.32
2019-03-04T07:09:42.712Z,11.41
2019-03-04T07:10:42.707Z,11.40
2019-03-04T07:11:42.707Z,11.40
2019-03-04T07:12:42.697Z,11.40
2019-03-04T07:13:42.693Z,11.35
2019-03-04T07:14:42.681Z,11.47
2019-03-04T07:15:42.676Z,11.40
2019-03-04T07:16:42.671Z,11.41
2019-03-04T07:17:42.666Z,11.43
2019-03-04T07:18:42.662Z,11.45
2019-03-04T07:19:42.656Z,11.50
2019-03-04T07:20:42.649Z,11.54
2019-03-04T07:21:42.645Z,11.51
2019-03-04T07:22:42.640Z,11.55
2019-03-04T07:23:42.632Z,11.65
2019-03-04T07:24:42.627Z,11.63
2019-03-04T07:25:42.624Z,11.63
2019-03-04T07:26:42.624Z,11.63
2019-03-04T07:27:44.335Z,11.63
2019-03-04T07:28:42.604Z,11.69
2019-03-04T07:29:42.601Z,11.65
2019-03-04T07:30:42.597Z,11.70
2019-03-04T07:31:42.591Z,11.72
2019-03-04T07:32:42.583Z,11.72
2019-03-04T07:33:42.581Z,11.62
2019-03-04T07:34:42.615Z,11.72
2019-03-04T07:35:42.567Z,11.81
2019-03-04T07:36:42.564Z,11.80
2019-03-04T07:37:42.562Z,11.69
2019-03-04T07:38:42.550Z,11.69
2019-03-04T07:39:42.545Z,11.69
2019-03-04T07:40:42.543Z,11.84
2019-03-04T07:41:42.536Z,11.73
2019-03-04T07:42:42.527Z,11.75
2019-03-04T07:43:42.525Z,11.83
2019-03-04T07:44:42.518Z,11.75
2019-03-04T07:45:42.513Z,11.80
2019-03-04T07:46:42.504Z,11.78
2019-03-04T07:47:42.502Z,11.78
2019-03-04T07:48:42.498Z,11.83
2019-03-04T07:49:42.489Z,11.86
2019-03-04T07:50:42.484Z,11.84
2019-03-04T07:51:42.489Z,11.81
2019-03-04T07:52:42.477Z,11.83
2019-03-04T07:53:46.460Z,11.88
2019-03-04T07:54:42.466Z,11.83
2019-03-04T07:55:42.459Z,11.81
2019-03-04T07:56:42.457Z,11.90
2019-03-04T07:57:42.448Z,11.99
2019-03-04T07:58:42.445Z,11.88
2019-03-04T07:59:42.437Z,11.87
2019-03-04T08:00:42.433Z,12.00
2019-03-04T08:01:42.432Z,12.00
2019-03-04T08:02:42.422Z,11.97
2019-03-04T08:03:42.422Z,11.99
2019-03-04T08:04:42.418Z,12.09
2019-03-04T08:05:42.409Z,12.07
2019-03-04T08:06:42.434Z,12.07
2019-03-04T08:07:42.394Z,12.04
2019-03-04T08:08:42.391Z,12.04
2019-03-04T08:09:42.390Z,12.09
2019-03-04T08:10:42.381Z,11.97
2019-03-04T08:11:42.374Z,12.04
2019-03-04T08:12:42.368Z,12.03
2019-03-04T08:13:42.363Z,12.07
2019-03-04T08:14:42.357Z,12.12
2019-03-04T08:15:42.357Z,12.15
2019-03-04T08:16:42.351Z,12.20
2019-03-04T08:17:42.345Z,12.10
2019-03-04T08:18:42.343Z,12.15
2019-03-04T08:19:42.331Z,12.24
2019-03-04T08:20:42.336Z,12.28
2019-03-04T08:21:42.326Z,12.20
2019-03-04T08:22:42.317Z,12.31
2019-03-04T08:23:42.312Z,12.36
2019-03-04T08:24:42.314Z,12.28
2019-03-04T08:25:42.355Z,12.28
2019-03-04T08:26:42.300Z,12.32
2019-03-04T08:27:42.295Z,12.32
2019-03-04T08:28:42.285Z,12.39
2019-03-04T08:29:42.295Z,12.40
2019-03-04T08:30:42.288Z,12.42
2019-03-04T08:31:42.273Z,12.54
2019-03-04T08:32:42.268Z,12.65
2019-03-04T08:33:42.261Z,12.65
2019-03-04T08:34:42.256Z,12.61
2019-03-04T08:35:42.250Z,12.78
2019-03-04T08:36:42.249Z,12.82
2019-03-04T08:37:42.243Z,12.86
2019-03-04T08:38:42.438Z,12.98
2019-03-04T08:39:42.285Z,13.11
2019-03-04T08:40:42.228Z,13.12
2019-03-04T08:41:42.224Z,13.05
2019-03-04T08:42:42.216Z,13.08
2019-03-04T08:43:42.292Z,13.13
2019-03-04T08:44:42.234Z,13.09
2019-03-04T08:45:42.204Z,13.08
2019-03-04T08:46:42.197Z,13.04
2019-03-04T08:47:42.193Z,13.15
2019-03-04T08:48:42.189Z,13.15
2019-03-04T08:49:42.301Z,13.12
2019-03-04T08:50:42.181Z,13.12
2019-03-04T08:51:42.192Z,13.09
2019-03-04T08:52:42.172Z,13.12
2019-03-04T08:53:42.169Z,13.11
2019-03-04T08:54:42.163Z,13.05
2019-03-04T08:55:42.325Z,13.03
2019-03-04T08:56:44.549Z,12.97
2019-03-04T08:57:42.206Z,13.09
2019-03-04T08:58:42.150Z,13.08
2019-03-04T08:59:42.140Z,13.12
2019-03-04T09:00:42.140Z,13.04
2019-03-04T09:01:42.189Z,13.09
2019-03-04T09:02:42.126Z,13.16
2019-03-04T09:03:42.124Z,13.11
2019-03-04T09:04:42.116Z,13.11
2019-03-04T09:05:42.308Z,13.13
2019-03-04T09:06:42.109Z,13.18
2019-03-04T09:07:42.108Z,13.08
2019-03-04T09:08:42.108Z,13.09
2019-03-04T09:09:42.100Z,13.13
2019-03-04T09:10:42.093Z,13.00
2019-03-04T09:11:42.139Z,12.97
2019-03-04T09:12:42.083Z,13.08
2019-03-04T09:13:42.081Z,12.97
2019-03-04T09:14:42.143Z,12.93
2019-03-04T09:15:42.071Z,13.03
2019-03-04T09:16:42.276Z,13.04
2019-03-04T09:17:42.064Z,13.01
2019-03-04T09:18:42.060Z,13.04
2019-03-04T09:19:42.323Z,13.01
2019-03-04T09:20:42.055Z,13.01
2019-03-04T09:21:42.132Z,12.95
2019-03-04T09:22:42.043Z,13.13
2019-03-04T09:23:42.054Z,13.08
2019-03-04T09:24:42.033Z,13.13
2019-03-04T09:25:42.028Z,13.11
2019-03-04T09:26:42.024Z,13.16
2019-03-04T09:27:42.022Z,13.12
2019-03-04T09:28:42.016Z,13.13
2019-03-04T09:29:42.015Z,13.18
2019-03-04T09:30:42.008Z,13.25
2019-03-04T09:31:42.052Z,13.25
2019-03-04T09:32:41.999Z,13.22
2019-03-04T09:33:42.027Z,13.23
2019-03-04T09:34:42.676Z,13.33
2019-03-04T09:35:41.995Z,13.30
2019-03-04T09:36:41.982Z,13.41
2019-03-04T09:37:43.307Z,13.31
2019-03-04T09:38:41.973Z,13.31
2019-03-04T09:39:41.969Z,13.33
2019-03-04T09:40:41.967Z,13.35
2019-03-04T09:41:43.095Z,13.31
2019-03-04T09:42:41.961Z,13.31
2019-03-04T09:43:41.954Z,13.30
2019-03-04T09:44:41.952Z,13.28
2019-03-04T09:45:41.946Z,13.38
2019-03-04T09:46:41.939Z,13.41
2019-03-04T09:47:41.937Z,13.44
2019-03-04T09:48:41.940Z,13.31
2019-03-04T09:49:41.930Z,13.33
2019-03-04T09:50:41.926Z,13.39
2019-03-04T09:51:41.947Z,13.37
2019-03-04T09:52:42.180Z,13.37
2019-03-04T09:53:43.109Z,13.38
2019-03-04T09:54:41.911Z,13.39
2019-03-04T09:55:41.904Z,13.39
2019-03-04T09:56:41.942Z,13.39
2019-03-04T09:57:41.898Z,13.31
2019-03-04T09:58:41.892Z,13.41
2019-03-04T09:59:41.889Z,13.54
2019-03-04T10:00:41.884Z,13.47
2019-03-04T10:01:41.878Z,13.53
2019-03-04T10:02:41.875Z,13.56
2019-03-04T10:03:41.912Z,13.59
2019-03-04T10:04:41.869Z,13.62
2019-03-04T10:05:41.863Z,13.67
2019-03-04T10:06:41.857Z,13.74
2019-03-04T10:07:42.000Z,13.68
2019-03-04T10:08:41.853Z,13.65
2019-03-04T10:09:41.853Z,13.67
2019-03-04T10:10:41.840Z,13.60
2019-03-04T10:11:41.837Z,13.65
2019-03-04T10:12:41.833Z,13.78
2019-03-04T10:13:41.830Z,13.86
2019-03-04T10:14:41.825Z,13.85
2019-03-04T10:15:41.822Z,13.93
2019-03-04T10:16:41.817Z,13.79
2019-03-04T10:17:41.842Z,13.87
2019-03-04T10:18:41.809Z,13.95
2019-03-04T10:19:41.804Z,13.92
2019-03-04T10:20:41.818Z,13.95
2019-03-04T10:21:41.876Z,13.92
2019-03-04T10:22:41.796Z,14.11
2019-03-04T10:23:41.790Z,14.20
2019-03-04T10:24:41.790Z,14.18
2019-03-04T10:25:41.782Z,14.22
2019-03-04T10:26:41.778Z,14.41
2019-03-04T10:27:41.781Z,14.41
2019-03-04T10:28:41.771Z,14.51
2019-03-04T10:29:41.774Z,14.55
2019-03-04T10:30:41.762Z,14.63
2019-03-04T10:31:41.759Z,14.73
2019-03-04T10:32:41.755Z,14.70
2019-03-04T10:33:41.750Z,14.88
2019-03-04T10:34:41.750Z,15.06
2019-03-04T10:35:41.735Z,15.15
2019-03-04T10:36:41.743Z,15.31
2019-03-04T10:37:41.739Z,15.44
2019-03-04T10:38:43.007Z,15.33
2019-03-04T10:39:41.734Z,15.33
2019-03-04T10:40:41.726Z,15.39
2019-03-04T10:41:41.725Z,15.31
2019-03-04T10:42:41.738Z,15.25
2019-03-04T10:43:41.722Z,15.29
2019-03-04T10:44:41.724Z,15.29
2019-03-04T10:45:41.714Z,15.27
2019-03-04T10:46:41.711Z,15.22
2019-03-04T10:47:41.925Z,15.24
2019-03-04T10:48:41.703Z,15.27
2019-03-04T10:49:41.697Z,15.27
2019-03-04T10:50:41.698Z,15.19
2019-03-04T10:51:41.692Z,15.24
2019-03-04T10:52:41.688Z,15.22
2019-03-04T10:53:41.686Z,15.29
2019-03-04T10:54:41.682Z,15.14
2019-03-04T10:55:42.475Z,15.22
2019-03-04T10:56:42.432Z,15.11
2019-03-04T10:57:41.676Z,15.25
2019-03-04T10:58:41.672Z,15.33
2019-03-04T10:59:41.668Z,15.36
2019-03-04T11:00:41.665Z,15.39
2019-03-04T11:01:41.661Z,15.37
2019-03-04T11:02:41.864Z,15.49
2019-03-04T11:03:41.654Z,15.44
2019-03-04T11:04:41.833Z,15.42
2019-03-04T11:05:41.650Z,15.40
2019-03-04T11:06:41.644Z,15.43
2019-03-04T11:07:41.644Z,15.37
2019-03-04T11:08:41.642Z,15.39
2019-03-04T11:09:41.632Z,15.39
2019-03-04T11:10:41.631Z,15.51
2019-03-04T11:11:41.628Z,15.59
2019-03-04T11:12:41.628Z,15.58
2019-03-04T11:13:41.622Z,15.68
2019-03-04T11:14:41.618Z,15.65
2019-03-04T11:15:41.616Z,15.64
2019-03-04T11:16:41.612Z,15.59
2019-03-04T11:17:41.608Z,15.42
2019-03-04T11:18:41.606Z,14.47
2019-03-04T11:19:41.602Z,13.68
2019-03-04T11:20:41.601Z,12.97
2019-03-04T11:21:41.597Z,12.32
2019-03-04T11:22:41.597Z,11.69
2019-03-04T11:23:41.593Z,11.22
2019-03-04T11:24:41.588Z,10.93
2019-03-04T11:25:41.587Z,10.90
2019-03-04T11:26:41.579Z,10.56
2019-03-04T11:27:41.575Z,10.46
2019-03-04T11:28:41.572Z,10.31
2019-03-04T11:29:41.649Z,10.25
2019-03-04T11:30:41.561Z,10.28
2019-03-04T11:31:41.699Z,10.23
2019-03-04T11:32:41.553Z,10.37
2019-03-04T11:33:41.553Z,10.51
2019-03-04T11:34:42.745Z,10.51
2019-03-04T11:35:41.540Z,10.48
2019-03-04T11:36:41.538Z,10.48
2019-03-04T11:37:41.531Z,10.33
2019-03-04T11:38:41.525Z,10.31
2019-03-04T11:39:41.519Z,10.22
2019-03-04T11:40:41.516Z,10.37
2019-03-04T11:41:41.509Z,10.28
2019-03-04T11:42:41.506Z,10.26
2019-03-04T11:43:41.499Z,10.28
2019-03-04T11:44:41.489Z,10.23
2019-03-04T11:45:41.490Z,10.30
2019-03-04T11:46:41.485Z,10.33
2019-03-04T11:47:41.483Z,10.23
2019-03-04T11:48:41.475Z,10.17
2019-03-04T11:49:41.472Z,10.16
2019-03-04T11:50:41.463Z,10.12
2019-03-04T11:51:41.460Z,10.16
2019-03-04T11:52:41.464Z,10.05
2019-03-04T11:53:41.447Z,9.92
2019-03-04T11:54:41.448Z,9.89
2019-03-04T11:55:41.434Z,9.87
2019-03-04T11:56:41.434Z,9.83
2019-03-04T11:57:41.425Z,9.89
2019-03-04T11:58:41.419Z,9.84
2019-03-04T11:59:41.416Z,9.92
2019-03-04T12:00:41.414Z,9.83
2019-03-04T12:01:41.403Z,9.82
2019-03-04T12:02:41.395Z,9.79
2019-03-04T12:03:41.391Z,9.89
2019-03-04T12:04:41.385Z,9.92
2019-03-04T12:05:41.383Z,9.99
2019-03-04T12:06:43.161Z,9.99
2019-03-04T12:07:41.369Z,10.12
2019-03-04T12:08:41.363Z,10.12
2019-03-04T12:09:41.356Z,10.09
2019-03-04T12:10:41.353Z,10.17
2019-03-04T12:11:41.348Z,10.20
2019-03-04T12:12:41.337Z,10.25
2019-03-04T12:13:41.333Z,10.30
2019-03-04T12:14:41.326Z,10.17
2019-03-04T12:15:41.321Z,10.22
2019-03-04T12:16:41.315Z,10.30
2019-03-04T12:17:41.311Z,10.38
2019-03-04T12:18:41.303Z,10.56
2019-03-04T12:19:41.300Z,10.67
2019-03-04T12:20:41.293Z,10.75
2019-03-04T12:21:41.289Z,10.86
2019-03-04T12:22:41.282Z,10.92
2019-03-04T12:23:41.274Z,10.97
2019-03-04T12:24:41.273Z,11.00
2019-03-04T12:25:41.264Z,11.18
2019-03-04T12:26:41.260Z,11.33
2019-03-04T12:27:41.258Z,11.57
2019-03-04T12:28:41.248Z,11.55
2019-03-04T12:29:41.245Z,11.59
2019-03-04T12:30:41.241Z,11.60
2019-03-04T12:31:41.235Z,11.48
2019-03-04T12:32:41.226Z,11.48
2019-03-04T12:33:41.222Z,11.44
2019-03-04T12:34:41.242Z,11.40
2019-03-04T12:35:41.225Z,11.32
2019-03-04T12:36:41.208Z,11.27
2019-03-04T12:37:41.200Z,11.36
2019-03-04T12:38:41.194Z,11.29
2019-03-04T12:39:41.192Z,11.40
2019-03-04T12:40:41.250Z,11.47
2019-03-04T12:41:41.177Z,11.48
2019-03-04T12:42:41.176Z,11.52
2019-03-04T12:43:41.168Z,11.48
2019-03-04T12:44:41.165Z,11.43
2019-03-04T12:45:41.158Z,11.48
2019-03-04T12:46:41.156Z,11.54
2019-03-04T12:47:41.147Z,11.70
2019-03-04T12:48:41.146Z,11.66
2019-03-04T12:49:41.140Z,11.66
2019-03-04T12:50:41.133Z,11.72
2019-03-04T12:51:41.127Z,11.68
2019-03-04T12:52:41.125Z,11.73
2019-03-04T12:53:41.119Z,11.78